sensor_id;sensor_type;location;lat;lon;timestamp;P1;durP1;ratioP1;P2;durP2;ratioP2
29466;SDS011;60968;37.490;-122.288;2023-01-28T00:00:57;15.13;;;2.40;;
29466;SDS011;60968;37.490;-122.288;2023-01-28T00:04:03;13.33;;;2.87;;
29466;SDS011;60968;37.490;-122.288;2023-01-28T00:07:04;11.37;;;2.60;;
29466;SDS011;60968;37.490;-122.288;2023-01-28T00:10:10;15.00;;;2.83;;
29466;SDS011;60968;37.490;-122.288;2023-01-28T00:13:12;13.50;;;2.77;;
29466;SDS011;60968;37.490;-122.288;2023-01-28T00:16:13;18.50;;;3.57;;
29466;SDS011;60968;37.490;-122.288;2023-01-28T00:19:13;14.50;;;2.20;;
29466;SDS011;60968;37.490;-122.288;2023-01-28T00:22:14;6.83;;;2.03;;
29466;SDS011;60968;37.490;-122.288;2023-01-28T00:25:15;7.90;;;2.27;;
29466;SDS011;60968;37.490;-122.288;2023-01-28T00:28:16;12.67;;;1.93;;
29466;SDS011;60968;37.490;-122.288;2023-01-28T00:31:19;5.73;;;1.57;;
29466;SDS011;60968;37.490;-122.288;2023-01-28T00:34:21;7.17;;;1.60;;
29466;SDS011;60968;37.490;-122.288;2023-01-28T00:37:22;12.77;;;1.60;;
29466;SDS011;60968;37.490;-122.288;2023-01-28T00:40:23;2.97;;;1.20;;
29466;SDS011;60968;37.490;-122.288;2023-01-28T00:43:24;6.90;;;1.20;;
29466;SDS011;60968;37.490;-122.288;2023-01-28T00:46:24;7.53;;;1.57;;
29466;SDS011;60968;37.490;-122.288;2023-01-28T00:49:25;3.47;;;0.97;;
29466;SDS011;60968;37.490;-122.288;2023-01-28T00:52:27;4.83;;;1.50;;
29466;SDS011;60968;37.490;-122.288;2023-01-28T00:55:28;6.53;;;1.27;;
29466;SDS011;60968;37.490;-122.288;2023-01-28T00:58:28;4.53;;;0.97;;
29466;SDS011;60968;37.490;-122.288;2023-01-28T01:01:29;8.23;;;1.17;;
29466;SDS011;60968;37.490;-122.288;2023-01-28T01:04:30;4.50;;;0.77;;
29466;SDS011;60968;37.490;-122.288;2023-01-28T01:07:31;4.10;;;1.40;;
29466;SDS011;60968;37.490;-122.288;2023-01-28T01:10:32;1.87;;;0.90;;
29466;SDS011;60968;37.490;-122.288;2023-01-28T01:13:33;2.80;;;0.80;;
29466;SDS011;60968;37.490;-122.288;2023-01-28T01:16:34;4.17;;;1.03;;
29466;SDS011;60968;37.490;-122.288;2023-01-28T01:19:36;2.60;;;0.83;;
29466;SDS011;60968;37.490;-122.288;2023-01-28T01:22:36;7.43;;;1.37;;
29466;SDS011;60968;37.490;-122.288;2023-01-28T01:25:38;4.73;;;1.03;;
29466;SDS011;60968;37.490;-122.288;2023-01-28T01:28:39;8.50;;;1.33;;
29466;SDS011;60968;37.490;-122.288;2023-01-28T01:31:40;5.83;;;1.13;;
29466;SDS011;60968;37.490;-122.288;2023-01-28T01:34:41;4.83;;;1.30;;
29466;SDS011;60968;37.490;-122.288;2023-01-28T01:37:42;4.23;;;1.27;;
29466;SDS011;60968;37.490;-122.288;2023-01-28T01:40:43;6.03;;;1.53;;
29466;SDS011;60968;37.490;-122.288;2023-01-28T01:43:45;11.07;;;1.97;;
29466;SDS011;60968;37.490;-122.288;2023-01-28T01:46:51;7.83;;;1.70;;
29466;SDS011;60968;37.490;-122.288;2023-01-28T01:49:52;10.63;;;1.53;;
29466;SDS011;60968;37.490;-122.288;2023-01-28T01:52:55;7.27;;;1.73;;
29466;SDS011;60968;37.490;-122.288;2023-01-28T01:56:01;12.47;;;1.70;;
29466;SDS011;60968;37.490;-122.288;2023-01-28T01:59:08;3.97;;;1.47;;
29466;SDS011;60968;37.490;-122.288;2023-01-28T02:02:14;10.80;;;1.60;;
29466;SDS011;60968;37.490;-122.288;2023-01-28T02:05:17;8.23;;;1.90;;
29466;SDS011;60968;37.490;-122.288;2023-01-28T02:08:20;6.87;;;1.60;;
29466;SDS011;60968;37.490;-122.288;2023-01-28T02:11:22;9.17;;;1.50;;
29466;SDS011;60968;37.490;-122.288;2023-01-28T02:14:29;5.63;;;1.50;;
29466;SDS011;60968;37.490;-122.288;2023-01-28T02:17:34;12.70;;;2.27;;
29466;SDS011;60968;37.490;-122.288;2023-01-28T02:23:43;11.10;;;2.03;;
29466;SDS011;60968;37.490;-122.288;2023-01-28T02:30:21;11.30;;;2.30;;
29466;SDS011;60968;37.490;-122.288;2023-01-28T02:34:12;8.03;;;1.70;;
29466;SDS011;60968;37.490;-122.288;2023-01-28T02:37:05;7.40;;;1.97;;
29466;SDS011;60968;37.490;-122.288;2023-01-28T02:40:09;7.60;;;2.20;;
29466;SDS011;60968;37.490;-122.288;2023-01-28T02:43:15;8.43;;;2.10;;
29466;SDS011;60968;37.490;-122.288;2023-01-28T02:49:34;20.07;;;2.77;;
29466;SDS011;60968;37.490;-122.288;2023-01-28T02:52:53;21.33;;;2.87;;
29466;SDS011;60968;37.490;-122.288;2023-01-28T02:59:17;22.40;;;3.27;;
29466;SDS011;60968;37.490;-122.288;2023-01-28T03:05:26;22.20;;;3.67;;
29466;SDS011;60968;37.490;-122.288;2023-01-28T03:08:46;14.03;;;3.43;;
29466;SDS011;60968;37.490;-122.288;2023-01-28T03:14:57;23.00;;;3.67;;
29466;SDS011;60968;37.490;-122.288;2023-01-28T03:18:12;22.30;;;3.63;;
29466;SDS011;60968;37.490;-122.288;2023-01-28T03:21:24;18.73;;;3.57;;
29466;SDS011;60968;37.490;-122.288;2023-01-28T03:24:37;23.20;;;3.50;;
29466;SDS011;60968;37.490;-122.288;2023-01-28T03:27:47;31.33;;;3.80;;
29466;SDS011;60968;37.490;-122.288;2023-01-28T03:30:58;23.70;;;3.63;;
29466;SDS011;60968;37.490;-122.288;2023-01-28T03:34:03;46.23;;;4.77;;
29466;SDS011;60968;37.490;-122.288;2023-01-28T03:37:08;28.33;;;4.07;;
29466;SDS011;60968;37.490;-122.288;2023-01-28T03:40:09;24.73;;;4.37;;
29466;SDS011;60968;37.490;-122.288;2023-01-28T03:43:11;24.50;;;3.83;;
29466;SDS011;60968;37.490;-122.288;2023-01-28T03:46:12;21.53;;;4.23;;
29466;SDS011;60968;37.490;-122.288;2023-01-28T03:49:14;36.10;;;5.67;;
29466;SDS011;60968;37.490;-122.288;2023-01-28T03:52:17;40.20;;;5.37;;
29466;SDS011;60968;37.490;-122.288;2023-01-28T03:55:19;28.43;;;4.60;;
29466;SDS011;60968;37.490;-122.288;2023-01-28T03:58:21;32.73;;;4.73;;
29466;SDS011;60968;37.490;-122.288;2023-01-28T04:01:23;31.27;;;4.77;;
29466;SDS011;60968;37.490;-122.288;2023-01-28T04:04:24;29.23;;;4.93;;
29466;SDS011;60968;37.490;-122.288;2023-01-28T04:07:24;21.50;;;4.03;;
29466;SDS011;60968;37.490;-122.288;2023-01-28T04:10:25;34.23;;;5.20;;
29466;SDS011;60968;37.490;-122.288;2023-01-28T04:13:26;35.70;;;4.70;;
29466;SDS011;60968;37.490;-122.288;2023-01-28T04:16:27;33.60;;;4.87;;
29466;SDS011;60968;37.490;-122.288;2023-01-28T04:19:29;32.20;;;5.20;;
29466;SDS011;60968;37.490;-122.288;2023-01-28T04:22:30;34.17;;;5.03;;
29466;SDS011;60968;37.490;-122.288;2023-01-28T04:25:32;31.83;;;4.70;;
29466;SDS011;60968;37.490;-122.288;2023-01-28T04:28:34;29.33;;;5.13;;
29466;SDS011;60968;37.490;-122.288;2023-01-28T04:31:35;34.90;;;5.20;;
29466;SDS011;60968;37.490;-122.288;2023-01-28T04:34:35;35.00;;;4.33;;
29466;SDS011;60968;37.490;-122.288;2023-01-28T04:37:37;33.97;;;4.20;;
29466;SDS011;60968;37.490;-122.288;2023-01-28T04:40:39;27.63;;;5.37;;
29466;SDS011;60968;37.490;-122.288;2023-01-28T04:43:40;24.30;;;4.33;;
29466;SDS011;60968;37.490;-122.288;2023-01-28T04:46:42;36.23;;;4.63;;
29466;SDS011;60968;37.490;-122.288;2023-01-28T04:49:43;43.60;;;5.10;;
29466;SDS011;60968;37.490;-122.288;2023-01-28T04:52:44;38.93;;;4.60;;
29466;SDS011;60968;37.490;-122.288;2023-01-28T04:55:45;26.50;;;4.67;;
29466;SDS011;60968;37.490;-122.288;2023-01-28T04:58:46;25.93;;;4.83;;
29466;SDS011;60968;37.490;-122.288;2023-01-28T05:01:48;33.13;;;4.80;;
29466;SDS011;60968;37.490;-122.288;2023-01-28T05:04:49;36.33;;;6.30;;
29466;SDS011;60968;37.490;-122.288;2023-01-28T05:07:50;29.53;;;4.00;;
29466;SDS011;60968;37.490;-122.288;2023-01-28T05:10:52;31.57;;;5.27;;
29466;SDS011;60968;37.490;-122.288;2023-01-28T05:13:53;27.43;;;4.60;;
29466;SDS011;60968;37.490;-122.288;2023-01-28T05:16:54;36.30;;;5.07;;
29466;SDS011;60968;37.490;-122.288;2023-01-28T05:19:55;27.13;;;4.27;;
29466;SDS011;60968;37.490;-122.288;2023-01-28T05:22:56;36.47;;;4.97;;
29466;SDS011;60968;37.490;-122.288;2023-01-28T05:25:57;31.70;;;5.17;;
29466;SDS011;60968;37.490;-122.288;2023-01-28T05:28:58;31.23;;;5.03;;
29466;SDS011;60968;37.490;-122.288;2023-01-28T05:31:59;35.53;;;4.90;;
29466;SDS011;60968;37.490;-122.288;2023-01-28T05:35:01;37.50;;;6.23;;
29466;SDS011;60968;37.490;-122.288;2023-01-28T05:38:02;42.57;;;5.43;;
29466;SDS011;60968;37.490;-122.288;2023-01-28T05:41:03;33.90;;;5.23;;
29466;SDS011;60968;37.490;-122.288;2023-01-28T05:44:04;37.50;;;6.10;;
29466;SDS011;60968;37.490;-122.288;2023-01-28T05:47:05;39.13;;;6.10;;
29466;SDS011;60968;37.490;-122.288;2023-01-28T05:50:06;42.83;;;5.77;;
29466;SDS011;60968;37.490;-122.288;2023-01-28T05:53:08;28.93;;;5.27;;
29466;SDS011;60968;37.490;-122.288;2023-01-28T05:56:09;28.50;;;5.10;;
29466;SDS011;60968;37.490;-122.288;2023-01-28T05:59:10;32.80;;;4.83;;
29466;SDS011;60968;37.490;-122.288;2023-01-28T06:02:11;36.07;;;5.40;;
29466;SDS011;60968;37.490;-122.288;2023-01-28T06:05:12;34.30;;;4.97;;
29466;SDS011;60968;37.490;-122.288;2023-01-28T06:08:13;29.93;;;4.53;;
29466;SDS011;60968;37.490;-122.288;2023-01-28T06:11:15;48.73;;;5.10;;
29466;SDS011;60968;37.490;-122.288;2023-01-28T06:14:17;32.77;;;4.83;;
29466;SDS011;60968;37.490;-122.288;2023-01-28T06:17:18;30.70;;;5.23;;
29466;SDS011;60968;37.490;-122.288;2023-01-28T06:20:19;42.73;;;5.27;;
29466;SDS011;60968;37.490;-122.288;2023-01-28T06:23:20;39.10;;;5.30;;
29466;SDS011;60968;37.490;-122.288;2023-01-28T06:26:21;32.50;;;4.53;;
29466;SDS011;60968;37.490;-122.288;2023-01-28T06:29:22;38.93;;;5.30;;
29466;SDS011;60968;37.490;-122.288;2023-01-28T06:32:23;36.63;;;5.90;;
29466;SDS011;60968;37.490;-122.288;2023-01-28T06:35:24;26.93;;;4.53;;
29466;SDS011;60968;37.490;-122.288;2023-01-28T06:38:25;26.03;;;4.40;;
29466;SDS011;60968;37.490;-122.288;2023-01-28T06:41:26;38.17;;;4.07;;
29466;SDS011;60968;37.490;-122.288;2023-01-28T06:44:27;31.80;;;4.87;;
29466;SDS011;60968;37.490;-122.288;2023-01-28T06:47:28;30.33;;;4.43;;
29466;SDS011;60968;37.490;-122.288;2023-01-28T06:50:29;33.00;;;5.27;;
29466;SDS011;60968;37.490;-122.288;2023-01-28T06:53:30;37.23;;;4.87;;
29466;SDS011;60968;37.490;-122.288;2023-01-28T06:56:31;19.27;;;4.37;;
29466;SDS011;60968;37.490;-122.288;2023-01-28T06:59:31;36.87;;;5.43;;
29466;SDS011;60968;37.490;-122.288;2023-01-28T07:02:32;27.97;;;5.13;;
29466;SDS011;60968;37.490;-122.288;2023-01-28T07:05:33;29.97;;;5.07;;
29466;SDS011;60968;37.490;-122.288;2023-01-28T07:08:37;40.10;;;5.07;;
29466;SDS011;60968;37.490;-122.288;2023-01-28T07:11:38;35.03;;;5.33;;
29466;SDS011;60968;37.490;-122.288;2023-01-28T07:14:39;32.13;;;4.70;;
29466;SDS011;60968;37.490;-122.288;2023-01-28T07:17:40;33.67;;;5.47;;
29466;SDS011;60968;37.490;-122.288;2023-01-28T07:20:41;35.37;;;5.43;;
29466;SDS011;60968;37.490;-122.288;2023-01-28T07:23:42;27.13;;;4.33;;
29466;SDS011;60968;37.490;-122.288;2023-01-28T07:26:46;39.27;;;4.90;;
29466;SDS011;60968;37.490;-122.288;2023-01-28T07:29:47;22.23;;;4.17;;
29466;SDS011;60968;37.490;-122.288;2023-01-28T07:32:57;34.63;;;6.40;;
29466;SDS011;60968;37.490;-122.288;2023-01-28T07:35:59;48.13;;;6.47;;
29466;SDS011;60968;37.490;-122.288;2023-01-28T07:39:01;41.87;;;5.33;;
29466;SDS011;60968;37.490;-122.288;2023-01-28T07:42:03;34.73;;;5.07;;
29466;SDS011;60968;37.490;-122.288;2023-01-28T07:45:04;48.63;;;6.37;;
29466;SDS011;60968;37.490;-122.288;2023-01-28T07:48:06;39.73;;;6.13;;
29466;SDS011;60968;37.490;-122.288;2023-01-28T07:51:09;40.57;;;5.67;;
29466;SDS011;60968;37.490;-122.288;2023-01-28T07:54:10;44.90;;;6.60;;
29466;SDS011;60968;37.490;-122.288;2023-01-28T07:57:12;36.93;;;6.17;;
29466;SDS011;60968;37.490;-122.288;2023-01-28T08:00:12;43.57;;;7.13;;
29466;SDS011;60968;37.490;-122.288;2023-01-28T08:03:14;35.60;;;5.23;;
29466;SDS011;60968;37.490;-122.288;2023-01-28T08:06:15;33.90;;;5.33;;
29466;SDS011;60968;37.490;-122.288;2023-01-28T08:09:17;39.10;;;6.53;;
29466;SDS011;60968;37.490;-122.288;2023-01-28T08:12:18;30.77;;;5.60;;
29466;SDS011;60968;37.490;-122.288;2023-01-28T08:15:19;58.87;;;7.33;;
29466;SDS011;60968;37.490;-122.288;2023-01-28T08:18:21;36.70;;;6.03;;
29466;SDS011;60968;37.490;-122.288;2023-01-28T08:21:22;33.03;;;5.40;;
29466;SDS011;60968;37.490;-122.288;2023-01-28T08:24:23;26.87;;;5.17;;
29466;SDS011;60968;37.490;-122.288;2023-01-28T08:27:24;35.93;;;5.77;;
29466;SDS011;60968;37.490;-122.288;2023-01-28T08:30:26;38.73;;;5.60;;
29466;SDS011;60968;37.490;-122.288;2023-01-28T08:33:26;26.90;;;4.93;;
29466;SDS011;60968;37.490;-122.288;2023-01-28T08:36:27;28.73;;;5.60;;
29466;SDS011;60968;37.490;-122.288;2023-01-28T08:39:33;37.63;;;5.93;;
29466;SDS011;60968;37.490;-122.288;2023-01-28T08:42:34;35.50;;;5.50;;
29466;SDS011;60968;37.490;-122.288;2023-01-28T08:45:35;39.80;;;5.30;;
29466;SDS011;60968;37.490;-122.288;2023-01-28T08:48:36;39.50;;;6.03;;
29466;SDS011;60968;37.490;-122.288;2023-01-28T08:51:37;35.83;;;5.23;;
29466;SDS011;60968;37.490;-122.288;2023-01-28T08:54:38;43.33;;;5.63;;
29466;SDS011;60968;37.490;-122.288;2023-01-28T08:57:39;28.23;;;5.00;;
29466;SDS011;60968;37.490;-122.288;2023-01-28T09:00:39;37.90;;;6.13;;
29466;SDS011;60968;37.490;-122.288;2023-01-28T09:03:41;29.80;;;5.30;;
29466;SDS011;60968;37.490;-122.288;2023-01-28T09:06:42;41.77;;;6.20;;
29466;SDS011;60968;37.490;-122.288;2023-01-28T09:09:43;37.17;;;6.57;;
29466;SDS011;60968;37.490;-122.288;2023-01-28T09:12:44;38.87;;;6.63;;
29466;SDS011;60968;37.490;-122.288;2023-01-28T09:15:46;48.53;;;6.90;;
29466;SDS011;60968;37.490;-122.288;2023-01-28T09:18:47;39.77;;;6.23;;
29466;SDS011;60968;37.490;-122.288;2023-01-28T09:21:48;23.53;;;4.73;;
29466;SDS011;60968;37.490;-122.288;2023-01-28T09:24:49;34.07;;;5.97;;
29466;SDS011;60968;37.490;-122.288;2023-01-28T09:27:50;35.10;;;5.80;;
29466;SDS011;60968;37.490;-122.288;2023-01-28T09:30:51;53.43;;;7.60;;
29466;SDS011;60968;37.490;-122.288;2023-01-28T09:33:52;41.30;;;6.53;;
29466;SDS011;60968;37.490;-122.288;2023-01-28T09:36:53;39.73;;;5.40;;
29466;SDS011;60968;37.490;-122.288;2023-01-28T09:39:54;46.23;;;7.47;;
29466;SDS011;60968;37.490;-122.288;2023-01-28T09:43:00;50.20;;;8.27;;
29466;SDS011;60968;37.490;-122.288;2023-01-28T09:46:11;45.20;;;7.47;;
29466;SDS011;60968;37.490;-122.288;2023-01-28T09:49:23;52.37;;;8.97;;
29466;SDS011;60968;37.490;-122.288;2023-01-28T09:52:38;40.43;;;7.97;;
29466;SDS011;60968;37.490;-122.288;2023-01-28T09:55:42;53.03;;;8.30;;
29466;SDS011;60968;37.490;-122.288;2023-01-28T09:58:45;42.07;;;8.07;;
29466;SDS011;60968;37.490;-122.288;2023-01-28T10:18:33;48.40;;;9.57;;
29466;SDS011;60968;37.490;-122.288;2023-01-28T10:21:51;40.03;;;9.30;;
29466;SDS011;60968;37.490;-122.288;2023-01-28T10:25:02;31.63;;;8.93;;
29466;SDS011;60968;37.490;-122.288;2023-01-28T10:28:18;57.27;;;10.60;;
29466;SDS011;60968;37.490;-122.288;2023-01-28T10:31:22;40.97;;;10.27;;
29466;SDS011;60968;37.490;-122.288;2023-01-28T10:34:36;40.80;;;9.77;;
29466;SDS011;60968;37.490;-122.288;2023-01-28T10:37:37;38.77;;;9.20;;
29466;SDS011;60968;37.490;-122.288;2023-01-28T10:40:40;38.93;;;10.83;;
29466;SDS011;60968;37.490;-122.288;2023-01-28T10:43:42;46.83;;;10.90;;
29466;SDS011;60968;37.490;-122.288;2023-01-28T10:46:43;38.47;;;11.03;;
29466;SDS011;60968;37.490;-122.288;2023-01-28T10:49:48;33.97;;;11.57;;
29466;SDS011;60968;37.490;-122.288;2023-01-28T10:53:01;45.67;;;12.00;;
29466;SDS011;60968;37.490;-122.288;2023-01-28T10:56:09;34.97;;;11.57;;
29466;SDS011;60968;37.490;-122.288;2023-01-28T10:59:32;36.07;;;11.43;;
29466;SDS011;60968;37.490;-122.288;2023-01-28T11:02:35;37.77;;;12.13;;
29466;SDS011;60968;37.490;-122.288;2023-01-28T11:05:36;39.03;;;11.57;;
29466;SDS011;60968;37.490;-122.288;2023-01-28T11:08:42;37.10;;;10.87;;
29466;SDS011;60968;37.490;-122.288;2023-01-28T11:11:44;38.43;;;11.27;;
29466;SDS011;60968;37.490;-122.288;2023-01-28T11:14:52;35.53;;;11.20;;
29466;SDS011;60968;37.490;-122.288;2023-01-28T11:17:58;39.50;;;11.80;;
29466;SDS011;60968;37.490;-122.288;2023-01-28T11:21:02;36.97;;;12.77;;
29466;SDS011;60968;37.490;-122.288;2023-01-28T11:24:16;38.20;;;11.93;;
29466;SDS011;60968;37.490;-122.288;2023-01-28T11:27:23;37.47;;;13.13;;
29466;SDS011;60968;37.490;-122.288;2023-01-28T11:30:30;42.83;;;13.77;;
29466;SDS011;60968;37.490;-122.288;2023-01-28T11:33:42;45.10;;;13.60;;
29466;SDS011;60968;37.490;-122.288;2023-01-28T11:36:48;41.30;;;12.93;;
29466;SDS011;60968;37.490;-122.288;2023-01-28T11:40:17;39.00;;;13.10;;
29466;SDS011;60968;37.490;-122.288;2023-01-28T11:43:22;34.90;;;12.10;;
29466;SDS011;60968;37.490;-122.288;2023-01-28T11:47:13;38.13;;;11.33;;
29466;SDS011;60968;37.490;-122.288;2023-01-28T12:03:52;41.67;;;9.83;;
29466;SDS011;60968;37.490;-122.288;2023-01-28T12:07:21;33.47;;;9.00;;
29466;SDS011;60968;37.490;-122.288;2023-01-28T12:20:07;57.60;;;10.47;;
29466;SDS011;60968;37.490;-122.288;2023-01-28T12:26:48;42.83;;;9.67;;
29466;SDS011;60968;37.490;-122.288;2023-01-28T12:34:22;38.57;;;11.60;;
29466;SDS011;60968;37.490;-122.288;2023-01-28T12:40:38;37.77;;;9.17;;
29466;SDS011;60968;37.490;-122.288;2023-01-28T12:47:04;43.47;;;10.50;;
29466;SDS011;60968;37.490;-122.288;2023-01-28T12:50:17;27.40;;;8.07;;
29466;SDS011;60968;37.490;-122.288;2023-01-28T12:53:26;41.00;;;8.30;;
29466;SDS011;60968;37.490;-122.288;2023-01-28T12:56:37;32.57;;;8.67;;
29466;SDS011;60968;37.490;-122.288;2023-01-28T12:59:47;37.90;;;9.90;;
29466;SDS011;60968;37.490;-122.288;2023-01-28T13:06:18;45.90;;;9.83;;
29466;SDS011;60968;37.490;-122.288;2023-01-28T13:09:29;31.20;;;8.50;;
29466;SDS011;60968;37.490;-122.288;2023-01-28T13:12:36;36.23;;;8.93;;
29466;SDS011;60968;37.490;-122.288;2023-01-28T13:15:39;33.67;;;8.37;;
29466;SDS011;60968;37.490;-122.288;2023-01-28T13:18:44;28.13;;;7.53;;
29466;SDS011;60968;37.490;-122.288;2023-01-28T13:21:46;32.40;;;6.43;;
29466;SDS011;60968;37.490;-122.288;2023-01-28T13:24:48;26.07;;;6.63;;
29466;SDS011;60968;37.490;-122.288;2023-01-28T13:28:02;38.63;;;6.73;;
29466;SDS011;60968;37.490;-122.288;2023-01-28T13:31:06;34.87;;;7.60;;
29466;SDS011;60968;37.490;-122.288;2023-01-28T13:34:24;43.63;;;8.23;;
29466;SDS011;60968;37.490;-122.288;2023-01-28T13:37:33;27.13;;;6.90;;
29466;SDS011;60968;37.490;-122.288;2023-01-28T13:40:39;31.97;;;8.33;;
29466;SDS011;60968;37.490;-122.288;2023-01-28T13:43:40;32.10;;;8.73;;
29466;SDS011;60968;37.490;-122.288;2023-01-28T13:46:41;31.40;;;8.60;;
29466;SDS011;60968;37.490;-122.288;2023-01-28T13:49:43;34.83;;;9.50;;
29466;SDS011;60968;37.490;-122.288;2023-01-28T13:53:15;44.97;;;9.60;;
29466;SDS011;60968;37.490;-122.288;2023-01-28T13:56:31;35.87;;;9.13;;
29466;SDS011;60968;37.490;-122.288;2023-01-28T14:00:04;26.90;;;8.53;;
29466;SDS011;60968;37.490;-122.288;2023-01-28T14:06:26;37.47;;;9.87;;
29466;SDS011;60968;37.490;-122.288;2023-01-28T14:19:48;32.67;;;9.23;;
29466;SDS011;60968;37.490;-122.288;2023-01-28T14:23:02;39.27;;;11.07;;
29466;SDS011;60968;37.490;-122.288;2023-01-28T14:29:25;50.60;;;13.10;;
29466;SDS011;60968;37.490;-122.288;2023-01-28T14:32:29;41.73;;;13.93;;
29466;SDS011;60968;37.490;-122.288;2023-01-28T14:35:31;38.50;;;13.17;;
29466;SDS011;60968;37.490;-122.288;2023-01-28T14:38:40;38.50;;;13.10;;
29466;SDS011;60968;37.490;-122.288;2023-01-28T14:41:43;41.73;;;13.40;;
29466;SDS011;60968;37.490;-122.288;2023-01-28T14:44:49;39.50;;;11.67;;
29466;SDS011;60968;37.490;-122.288;2023-01-28T14:54:38;37.77;;;14.20;;
29466;SDS011;60968;37.490;-122.288;2023-01-28T14:57:55;41.03;;;13.40;;
29466;SDS011;60968;37.490;-122.288;2023-01-28T15:00:59;45.37;;;16.00;;
29466;SDS011;60968;37.490;-122.288;2023-01-28T15:04:00;42.23;;;15.57;;
29466;SDS011;60968;37.490;-122.288;2023-01-28T15:07:16;35.47;;;13.03;;
29466;SDS011;60968;37.490;-122.288;2023-01-28T15:10:40;22.60;;;8.63;;
29466;SDS011;60968;37.490;-122.288;2023-01-28T15:13:41;18.70;;;8.27;;
29466;SDS011;60968;37.490;-122.288;2023-01-28T15:16:47;14.90;;;7.00;;
29466;SDS011;60968;37.490;-122.288;2023-01-28T15:19:49;17.83;;;5.53;;
29466;SDS011;60968;37.490;-122.288;2023-01-28T15:22:52;16.50;;;6.53;;
29466;SDS011;60968;37.490;-122.288;2023-01-28T15:25:53;12.57;;;6.47;;
29466;SDS011;60968;37.490;-122.288;2023-01-28T15:28:55;12.93;;;6.30;;
29466;SDS011;60968;37.490;-122.288;2023-01-28T15:31:56;15.77;;;5.60;;
29466;SDS011;60968;37.490;-122.288;2023-01-28T15:35:00;11.40;;;5.30;;
29466;SDS011;60968;37.490;-122.288;2023-01-28T15:38:07;14.27;;;5.13;;
29466;SDS011;60968;37.490;-122.288;2023-01-28T15:41:08;14.47;;;5.80;;
29466;SDS011;60968;37.490;-122.288;2023-01-28T15:44:28;8.67;;;4.53;;
29466;SDS011;60968;37.490;-122.288;2023-01-28T15:47:42;13.53;;;4.10;;
29466;SDS011;60968;37.490;-122.288;2023-01-28T15:50:44;11.47;;;4.67;;
29466;SDS011;60968;37.490;-122.288;2023-01-28T15:53:45;9.53;;;4.63;;
29466;SDS011;60968;37.490;-122.288;2023-01-28T15:56:49;6.97;;;3.73;;
29466;SDS011;60968;37.490;-122.288;2023-01-28T15:59:50;12.67;;;3.60;;
29466;SDS011;60968;37.490;-122.288;2023-01-28T16:03:06;7.80;;;3.40;;
29466;SDS011;60968;37.490;-122.288;2023-01-28T16:06:12;5.47;;;3.23;;
29466;SDS011;60968;37.490;-122.288;2023-01-28T16:09:20;9.70;;;3.70;;
29466;SDS011;60968;37.490;-122.288;2023-01-28T16:12:32;7.43;;;3.90;;
29466;SDS011;60968;37.490;-122.288;2023-01-28T16:15:33;7.27;;;3.33;;
29466;SDS011;60968;37.490;-122.288;2023-01-28T16:18:46;8.77;;;3.43;;
29466;SDS011;60968;37.490;-122.288;2023-01-28T16:21:52;6.30;;;3.73;;
29466;SDS011;60968;37.490;-122.288;2023-01-28T16:24:53;10.53;;;5.10;;
29466;SDS011;60968;37.490;-122.288;2023-01-28T16:27:54;6.60;;;3.83;;
29466;SDS011;60968;37.490;-122.288;2023-01-28T16:30:56;9.93;;;4.73;;
29466;SDS011;60968;37.490;-122.288;2023-01-28T16:33:58;8.17;;;4.20;;
29466;SDS011;60968;37.490;-122.288;2023-01-28T16:36:59;12.73;;;4.30;;
29466;SDS011;60968;37.490;-122.288;2023-01-28T16:40:00;7.97;;;3.60;;
29466;SDS011;60968;37.490;-122.288;2023-01-28T16:43:01;7.37;;;3.63;;
29466;SDS011;60968;37.490;-122.288;2023-01-28T16:46:02;9.10;;;3.90;;
29466;SDS011;60968;37.490;-122.288;2023-01-28T16:49:03;10.97;;;5.00;;
29466;SDS011;60968;37.490;-122.288;2023-01-28T16:52:04;9.30;;;4.20;;
29466;SDS011;60968;37.490;-122.288;2023-01-28T16:55:06;10.03;;;4.70;;
29466;SDS011;60968;37.490;-122.288;2023-01-28T16:58:13;6.88;;;4.60;;
29466;SDS011;60968;37.490;-122.288;2023-01-28T17:01:18;6.50;;;4.63;;
29466;SDS011;60968;37.490;-122.288;2023-01-28T17:04:19;5.05;;;4.18;;
29466;SDS011;60968;37.490;-122.288;2023-01-28T17:10:59;9.90;;;4.63;;
29466;SDS011;60968;37.490;-122.288;2023-01-28T17:14:00;11.32;;;5.03;;
29466;SDS011;60968;37.490;-122.288;2023-01-28T17:17:01;8.65;;;4.85;;
29466;SDS011;60968;37.490;-122.288;2023-01-28T17:20:02;11.02;;;4.68;;
29466;SDS011;60968;37.490;-122.288;2023-01-28T17:23:03;8.88;;;5.47;;
29466;SDS011;60968;37.490;-122.288;2023-01-28T17:26:04;6.68;;;3.90;;
29466;SDS011;60968;37.490;-122.288;2023-01-28T17:29:06;8.65;;;4.25;;
29466;SDS011;60968;37.490;-122.288;2023-01-28T17:32:07;6.22;;;4.60;;
29466;SDS011;60968;37.490;-122.288;2023-01-28T17:35:08;6.68;;;4.20;;
29466;SDS011;60968;37.490;-122.288;2023-01-28T17:38:09;6.05;;;3.92;;
29466;SDS011;60968;37.490;-122.288;2023-01-28T17:41:10;6.73;;;4.27;;
29466;SDS011;60968;37.490;-122.288;2023-01-28T17:44:12;6.30;;;4.87;;
29466;SDS011;60968;37.490;-122.288;2023-01-28T17:47:14;7.27;;;4.90;;
29466;SDS011;60968;37.490;-122.288;2023-01-28T17:50:15;6.87;;;4.43;;
29466;SDS011;60968;37.490;-122.288;2023-01-28T17:53:16;8.77;;;5.30;;
29466;SDS011;60968;37.490;-122.288;2023-01-28T17:56:21;6.60;;;4.73;;
29466;SDS011;60968;37.490;-122.288;2023-01-28T17:59:26;8.97;;;5.00;;
29466;SDS011;60968;37.490;-122.288;2023-01-28T18:02:27;10.57;;;5.40;;
29466;SDS011;60968;37.490;-122.288;2023-01-28T18:05:28;7.33;;;5.00;;
29466;SDS011;60968;37.490;-122.288;2023-01-28T18:08:29;7.60;;;4.40;;
29466;SDS011;60968;37.490;-122.288;2023-01-28T18:11:30;10.60;;;5.37;;
29466;SDS011;60968;37.490;-122.288;2023-01-28T18:14:31;8.30;;;4.57;;
29466;SDS011;60968;37.490;-122.288;2023-01-28T18:17:32;8.13;;;4.70;;
29466;SDS011;60968;37.490;-122.288;2023-01-28T18:20:32;9.03;;;5.20;;
29466;SDS011;60968;37.490;-122.288;2023-01-28T18:23:33;10.73;;;5.00;;
29466;SDS011;60968;37.490;-122.288;2023-01-28T18:26:37;10.13;;;5.53;;
29466;SDS011;60968;37.490;-122.288;2023-01-28T18:29:38;11.77;;;5.53;;
29466;SDS011;60968;37.490;-122.288;2023-01-28T18:32:39;7.93;;;5.27;;
29466;SDS011;60968;37.490;-122.288;2023-01-28T18:35:43;10.47;;;5.50;;
29466;SDS011;60968;37.490;-122.288;2023-01-28T18:38:45;9.37;;;4.87;;
29466;SDS011;60968;37.490;-122.288;2023-01-28T18:41:46;9.87;;;5.57;;
29466;SDS011;60968;37.490;-122.288;2023-01-28T18:44:47;9.77;;;5.33;;
29466;SDS011;60968;37.490;-122.288;2023-01-28T18:47:48;12.90;;;5.93;;
29466;SDS011;60968;37.490;-122.288;2023-01-28T18:50:52;9.20;;;5.90;;
29466;SDS011;60968;37.490;-122.288;2023-01-28T18:53:55;6.97;;;5.00;;
29466;SDS011;60968;37.490;-122.288;2023-01-28T18:56:57;12.20;;;5.27;;
29466;SDS011;60968;37.490;-122.288;2023-01-28T18:59:57;11.50;;;5.20;;
29466;SDS011;60968;37.490;-122.288;2023-01-28T19:02:59;11.30;;;4.97;;
29466;SDS011;60968;37.490;-122.288;2023-01-28T19:06:07;11.13;;;4.93;;
29466;SDS011;60968;37.490;-122.288;2023-01-28T19:09:09;11.80;;;5.50;;
29466;SDS011;60968;37.490;-122.288;2023-01-28T19:12:12;9.50;;;5.10;;